Time;durP1;ratioP1;P1;durP2;ratioP2;P2;SDS_P1;SDS_P2;PMS_P1;PMS_P2;Temp;Humidity;BMP_temperature;BMP_pressure;BME280_temperature;BME280_humidity;BME280_pressure;Samples;Min_cycle;Max_cycle;Signal;HPM_P1;HPM_P2
2021/12/10 00:01:05;;;;;;;13.68;1.90;;;;;;;16.19;45.21;98044.56;4413979;32;20081;-69
2021/12/10 00:03:36;;;;;;;6.00;1.23;;;;;;;15.89;45.17;98039.09;4424108;32;20097;-69
2021/12/10 00:06:13;;;;;;;6.97;1.85;;;;;;;15.97;45.19;98034.34;4420474;32;20069;-69
2021/12/10 00:08:43;;;;;;;11.95;1.60;;;;;;;15.96;44.70;98047.00;4419379;32;20087;-69
2021/12/10 00:11:16;;;;;;;8.85;2.03;;;;;;;15.51;44.35;98043.31;4422702;32;20152;-69
2021/12/10 00:13:44;;;;;;;9.40;1.60;;;;;;;16.01;43.58;98045.38;4420753;32;20056;-69
2021/12/10 00:16:12;;;;;;;7.45;1.60;;;;;;;15.25;43.30;98048.78;4419880;32;20064;-69
2021/12/10 00:18:43;;;;;;;23.48;2.50;;;;;;;15.29;43.62;98044.34;4420571;32;20041;-69
2021/12/10 00:21:09;;;;;;;16.30;1.58;;;;;;;15.71;42.86;98054.84;4423311;32;20071;-69
2021/12/10 00:23:35;;;;;;;12.93;2.30;;;;;;;15.60;42.30;98055.03;4422530;32;20097;-69
2021/12/10 00:26:04;;;;;;;13.73;1.77;;;;;;;15.56;42.48;98048.13;4419560;32;20037;-69
2021/12/10 00:28:35;;;;;;;12.93;1.60;;;;;;;15.97;41.94;98057.03;4421910;32;20046;-69
2021/12/10 00:33:47;;;;;;;9.93;2.35;;;;;;;16.32;42.01;98065.22;3975009;32;15140545;-69
2021/12/10 00:36:12;;;;;;;18.08;2.03;;;;;;;16.32;42.01;98065.22;4431888;32;20307;-69
2021/12/10 00:38:39;;;;;;;16.60;2.65;;;;;;;15.88;42.30;98063.88;4429366;32;20532;-69
2021/12/10 00:41:07;;;;;;;8.93;1.52;;;;;;;15.45;42.47;98056.78;4429525;32;20045;-69
2021/12/10 00:43:35;;;;;;;16.48;2.80;;;;;;;15.78;42.18;98061.97;4431512;32;20107;-69
2021/12/10 00:46:00;;;;;;;18.65;2.70;;;;;;;15.89;42.14;98073.91;4429803;32;20141;-69
2021/12/10 00:48:26;;;;;;;27.15;4.15;;;;;;;15.93;41.75;98074.38;4429763;32;20837;-69
2021/12/10 00:50:55;;;;;;;15.07;2.53;;;;;;;15.89;41.99;98076.75;4431582;32;20116;-69
2021/12/10 00:53:22;;;;;;;23.10;2.65;;;;;;;15.94;42.27;98080.81;4432543;32;20034;-69
2021/12/10 00:55:48;;;;;;;15.27;2.55;;;;;;;15.76;42.72;98090.88;4429592;32;20098;-69
2021/12/10 00:58:15;;;;;;;11.38;1.52;;;;;;;15.41;43.60;98085.41;4429196;32;20513;-69
2021/12/10 01:00:47;;;;;;;7.75;1.17;;;;;;;15.58;43.54;98100.16;4426552;32;20069;-69
2021/12/10 01:03:16;;;;;;;10.27;1.25;;;;;;;14.59;44.93;98117.47;4431188;32;20034;-69
2021/12/10 01:05:45;;;;;;;9.38;1.33;;;;;;;15.05;44.33;98103.09;4430134;32;20148;-69
2021/12/10 01:08:11;;;;;;;4.68;1.42;;;;;;;14.58;45.04;98110.28;4428747;32;20337;-69
2021/12/10 01:10:43;;;;;;;9.80;1.20;;;;;;;14.34;44.73;98125.19;4431923;32;20100;-69
2021/12/10 01:13:14;;;;;;;13.10;1.65;;;;;;;15.00;43.57;98116.03;4432089;32;20190;-69
2021/12/10 01:16:18;;;;;;;6.60;0.98;;;;;;;14.84;44.08;98110.53;4431756;32;20367;-69
2021/12/10 01:24:52;;;;;;;11.85;1.42;;;;;;;14.89;43.98;98129.53;4429874;32;20058;-69
2021/12/10 01:27:29;;;;;;;11.85;1.80;;;;;;;14.97;43.54;98130.50;4430489;32;20409;-69
2021/12/10 01:29:57;;;;;;;14.77;1.90;;;;;;;15.20;42.97;98124.06;4427168;32;20103;-69
2021/12/10 01:32:29;;;;;;;19.52;1.80;;;;;;;15.31;43.29;98140.16;4430482;32;20126;-69
2021/12/10 01:34:56;;;;;;;17.75;2.08;;;;;;;15.29;43.26;98135.03;4428950;32;20107;-69
2021/12/10 01:37:25;;;;;;;19.20;2.40;;;;;;;15.01;43.81;98145.91;4425290;32;20601;-69
2021/12/10 01:39:52;;;;;;;15.45;1.62;;;;;;;15.28;43.79;98146.88;4430160;32;20459;-69
2021/12/10 01:44:58;;;;;;;15.52;2.55;;;;;;;16.22;42.80;98151.28;3957441;32;15722544;-69
2021/12/10 01:47:30;;;;;;;16.35;2.55;;;;;;;16.22;42.80;98151.28;4429581;32;20075;-69
2021/12/10 01:49:57;;;;;;;15.00;2.22;;;;;;;15.86;43.12;98156.44;4428111;32;20059;-69
2021/12/10 01:52:23;;;;;;;13.65;1.92;;;;;;;15.36;43.72;98154.25;4432377;32;20191;-69
2021/12/10 01:54:52;;;;;;;19.12;2.72;;;;;;;15.04;43.89;98155.38;4435030;32;20084;-69
2021/12/10 01:57:20;;;;;;;9.68;1.70;;;;;;;15.03;43.71;98157.44;4430262;32;20072;-69
2021/12/10 01:59:47;;;;;;;12.00;2.00;;;;;;;14.89;43.33;98166.34;4429278;32;20065;-69
2021/12/10 02:02:20;;;;;;;18.52;2.30;;;;;;;14.95;43.35;98167.84;4431481;32;20115;-69
2021/12/10 02:04:47;;;;;;;15.85;2.62;;;;;;;14.89;43.03;98174.84;4429381;32;20197;-69
2021/12/10 02:07:18;;;;;;;18.17;2.60;;;;;;;14.28;44.79;98174.59;4417423;32;20475;-69
2021/12/10 02:09:44;;;;;;;18.58;2.28;;;;;;;14.97;43.61;98175.81;4428774;32;20037;-69
2021/12/10 02:12:11;;;;;;;14.00;2.05;;;;;;;14.97;43.84;98187.13;4434724;32;20060;-69
2021/12/10 02:14:36;;;;;;;12.88;2.30;;;;;;;14.83;44.45;98182.62;4429387;32;20018;-69
2021/12/10 02:17:03;;;;;;;12.07;2.15;;;;;;;14.94;44.04;98193.84;4431344;32;20045;-69
2021/12/10 02:19:30;;;;;;;18.27;2.67;;;;;;;14.94;44.33;98196.69;4415903;32;20073;-69
2021/12/10 02:21:57;;;;;;;15.90;2.70;;;;;;;14.51;44.28;98202.19;4433039;32;20172;-69
2021/12/10 02:24:23;;;;;;;17.87;1.80;;;;;;;14.69;44.13;98201.53;4437376;32;20057;-69
2021/12/10 02:26:54;;;;;;;18.55;1.83;;;;;;;14.69;43.76;98192.25;4430840;32;20378;-69
2021/12/10 02:29:23;;;;;;;16.52;2.45;;;;;;;14.52;44.05;98200.91;4427984;32;20086;-69
2021/12/10 02:31:51;;;;;;;10.73;1.70;;;;;;;14.43;44.16;98201.22;4429681;32;20137;-69
2021/12/10 02:34:17;;;;;;;21.62;1.87;;;;;;;14.92;43.02;98204.94;4429493;32;20126;-69
2021/12/10 02:36:43;;;;;;;18.67;1.67;;;;;;;13.99;44.04;98202.25;4433649;32;20049;-69
2021/12/10 02:39:14;;;;;;;18.00;1.87;;;;;;;14.20;42.81;98210.37;4430973;32;20068;-69
2021/12/10 02:41:41;;;;;;;9.75;1.83;;;;;;;14.00;43.31;98209.44;4430430;32;20038;-69
2021/12/10 02:44:11;;;;;;;14.10;1.60;;;;;;;13.87;43.48;98214.91;4429733;32;20049;-68
2021/12/10 02:46:37;;;;;;;13.02;1.52;;;;;;;13.55;43.97;98215.81;4433206;32;20084;-68
2021/12/10 02:49:05;;;;;;;10.32;2.03;;;;;;;13.97;43.18;98218.97;4429951;32;20211;-68
2021/12/10 02:51:32;;;;;;;14.18;3.10;;;;;;;14.20;42.81;98218.84;4432915;32;20109;-69
2021/12/10 02:53:59;;;;;;;15.05;1.62;;;;;;;13.76;43.84;98214.97;4431149;32;20088;-69
2021/12/10 02:56:25;;;;;;;17.85;1.90;;;;;;;14.11;43.32;98208.59;4419925;32;20467;-69
2021/12/10 02:58:54;;;;;;;15.93;2.10;;;;;;;14.05;43.22;98222.00;4416630;32;20394;-69
2021/12/10 03:01:43;;;;;;;17.45;2.15;;;;;;;14.18;43.32;98224.25;4420146;32;20110;-69
2021/12/10 03:04:10;;;;;;;7.47;1.62;;;;;;;14.32;42.88;98225.97;4416680;32;20022;-69
2021/12/10 03:06:44;;;;;;;26.23;2.03;;;;;;;14.56;42.16;98226.84;4420496;32;20207;-69
2021/12/10 03:09:11;;;;;;;15.95;1.90;;;;;;;14.41;42.40;98222.84;4419912;32;20425;-69
2021/12/10 03:11:39;;;;;;;15.93;1.85;;;;;;;14.53;42.43;98225.06;4419867;32;20065;-69
2021/12/10 03:14:10;;;;;;;15.88;2.22;;;;;;;14.11;42.76;98231.22;4419929;32;20042;-69
2021/12/10 03:16:39;;;;;;;11.38;1.83;;;;;;;14.32;42.66;98229.59;4421152;32;20061;-69
2021/12/10 03:19:05;;;;;;;18.65;2.72;;;;;;;14.91;41.75;98237.38;4420430;32;20472;-69
2021/12/10 03:21:33;;;;;;;21.85;2.37;;;;;;;15.12;41.51;98258.28;4420333;32;20078;-69
2021/12/10 03:23:59;;;;;;;14.48;2.92;;;;;;;14.89;42.38;98259.78;4415436;32;20085;-69
2021/12/10 03:26:25;;;;;;;18.27;2.08;;;;;;;14.69;43.18;98277.94;4419809;32;20160;-68
2021/12/10 03:28:53;;;;;;;17.95;2.20;;;;;;;14.50;44.39;98284.78;4419028;32;20729;-69
2021/12/10 03:31:22;;;;;;;18.17;2.22;;;;;;;14.64;44.44;98284.44;4418688;32;20512;-69
2021/12/10 03:33:51;;;;;;;14.00;1.83;;;;;;;14.02;45.39;98288.09;4419784;32;20057;-69
2021/12/10 03:36:16;;;;;;;9.30;0.77;;;;;;;13.64;45.56;98281.31;4417828;32;20087;-68
2021/12/10 03:38:43;;;;;;;6.40;0.95;;;;;;;13.04;45.27;98289.88;4418750;32;20053;-68
2021/12/10 03:41:10;;;;;;;3.05;0.88;;;;;;;13.05;45.37;98282.94;4418093;32;20148;-68
2021/12/10 03:43:37;;;;;;;6.07;0.80;;;;;;;12.98;44.90;98281.38;4419604;32;20053;-69
2021/12/10 03:46:04;;;;;;;5.95;0.70;;;;;;;13.00;44.40;98278.84;4418448;32;20099;-69
2021/12/10 03:48:33;;;;;;;6.93;0.95;;;;;;;13.32;44.22;98280.09;4416891;32;20076;-68
2021/12/10 03:51:03;;;;;;;8.70;0.60;;;;;;;12.72;44.87;98283.69;4417635;32;20092;-68
2021/12/10 03:53:29;;;;;;;6.97;0.60;;;;;;;12.30;45.81;98283.88;4420926;32;20472;-68
2021/12/10 03:56:01;;;;;;;10.57;1.17;;;;;;;12.56;45.15;98284.44;4420558;32;20109;-68
2021/12/10 03:58:27;;;;;;;6.47;0.75;;;;;;;13.21;44.18;98282.16;4416069;32;20818;-68
2021/12/10 04:00:55;;;;;;;7.18;0.80;;;;;;;12.41;44.98;98283.91;4417174;32;20070;-68
2021/12/10 04:03:23;;;;;;;9.38;0.60;;;;;;;12.41;45.23;98275.44;4416936;32;20091;-68
2021/12/10 04:05:49;;;;;;;7.78;0.93;;;;;;;12.43;45.04;98278.53;4416858;32;20107;-68
2021/12/10 04:08:15;;;;;;;8.68;0.90;;;;;;;12.41;45.05;98281.09;4415335;32;20034;-68
2021/12/10 04:10:41;;;;;;;4.55;0.62;;;;;;;12.38;45.24;98284.16;4421390;32;20077;-68
2021/12/10 04:13:07;;;;;;;9.13;0.57;;;;;;;12.14;45.47;98273.34;4425350;32;20104;-68
2021/12/10 04:15:35;;;;;;;2.83;0.30;;;;;;;12.50;44.88;98271.63;4419757;32;20045;-68
2021/12/10 04:18:01;;;;;;;14.48;1.40;;;;;;;11.98;45.76;98269.19;4419077;32;20169;-68
2021/12/10 04:20:29;;;;;;;8.23;0.85;;;;;;;11.81;46.02;98270.41;4419988;32;20069;-68
2021/12/10 04:22:57;;;;;;;2.83;0.37;;;;;;;12.30;45.26;98281.06;4420370;32;20122;-69
2021/12/10 04:25:24;;;;;;;6.03;0.85;;;;;;;12.45;45.23;98286.50;4417944;32;20078;-69
2021/12/10 04:27:54;;;;;;;6.75;0.88;;;;;;;12.29;45.49;98284.38;4421492;32;20082;-69
2021/12/10 04:30:20;;;;;;;3.60;0.43;;;;;;;12.21;45.46;98297.44;4418833;32;20169;-69
2021/12/10 04:32:46;;;;;;;7.03;0.75;;;;;;;12.45;44.72;98298.53;4418214;32;20635;-69
2021/12/10 04:35:13;;;;;;;6.35;0.62;;;;;;;12.37;44.55;98300.31;4416574;32;20134;-69
2021/12/10 04:37:39;;;;;;;5.32;0.57;;;;;;;12.26;44.47;98302.31;4420336;32;20065;-69
2021/12/10 04:40:09;;;;;;;9.48;1.02;;;;;;;12.56;43.72;98301.37;4418335;32;20123;-69
2021/12/10 04:42:36;;;;;;;1.17;0.30;;;;;;;11.97;43.87;98309.16;4422237;32;20471;-69
2021/12/10 04:45:05;;;;;;;4.07;0.43;;;;;;;12.33;43.32;98305.41;4418674;32;20041;-69
2021/12/10 04:47:31;;;;;;;11.98;0.70;;;;;;;12.64;42.39;98296.00;4419042;32;20119;-69
2021/12/10 04:49:57;;;;;;;5.78;0.85;;;;;;;11.94;43.94;98302.47;4417938;32;20029;-69
2021/12/10 04:52:23;;;;;;;10.75;1.25;;;;;;;11.99;43.43;98317.88;4417786;32;20042;-69
2021/12/10 04:54:49;;;;;;;7.35;1.20;;;;;;;12.45;43.02;98317.53;4419085;32;20745;-69
2021/12/10 04:57:16;;;;;;;7.37;0.77;;;;;;;12.42;42.97;98312.91;4417566;32;20103;-69
2021/12/10 04:59:43;;;;;;;14.32;0.98;;;;;;;12.37;43.26;98305.97;4416466;32;20038;-69
2021/12/10 05:02:11;;;;;;;9.18;0.95;;;;;;;12.64;43.10;98312.94;4417072;32;20115;-69
2021/12/10 05:04:41;;;;;;;9.68;1.17;;;;;;;12.56;43.34;98300.59;4416570;32;20118;-69
2021/12/10 05:07:09;;;;;;;9.60;0.85;;;;;;;12.17;44.10;98311.78;4419773;32;20029;-69
2021/12/10 05:09:35;;;;;;;13.02;0.93;;;;;;;12.25;44.16;98309.25;4420413;32;20034;-69
2021/12/10 05:12:01;;;;;;;9.18;0.80;;;;;;;11.82;44.71;98305.75;4421396;32;20501;-69
2021/12/10 05:14:30;;;;;;;7.93;0.95;;;;;;;12.07;44.50;98314.06;4417321;32;20045;-69
2021/12/10 05:16:58;;;;;;;5.53;0.88;;;;;;;12.39;43.94;98328.75;4418975;32;20013;-69
2021/12/10 05:19:27;;;;;;;8.07;1.00;;;;;;;11.85;44.43;98325.22;4419485;32;20046;-69
2021/12/10 05:21:53;;;;;;;5.87;0.88;;;;;;;12.19;44.12;98320.53;4419105;32;20424;-69
2021/12/10 05:24:19;;;;;;;5.57;1.17;;;;;;;12.12;43.99;98328.69;4419513;32;20450;-69
2021/12/10 05:26:47;;;;;;;7.47;0.98;;;;;;;12.20;43.90;98332.53;4421659;32;20041;-69
2021/12/10 05:29:14;;;;;;;6.75;1.25;;;;;;;12.52;43.17;98331.87;4419195;32;20038;-69
2021/12/10 05:31:43;;;;;;;13.62;2.20;;;;;;;12.49;43.42;98327.25;4420177;32;20095;-69
2021/12/10 05:34:11;;;;;;;8.02;0.73;;;;;;;12.46;43.26;98336.75;4415794;32;20405;-69
2021/12/10 05:36:37;;;;;;;12.88;1.42;;;;;;;12.39;42.97;98340.03;4417306;32;21558;-69
2021/12/10 05:39:05;;;;;;;10.25;1.55;;;;;;;12.24;42.94;98339.47;4417564;32;20041;-70
2021/12/10 05:41:31;;;;;;;11.35;1.20;;;;;;;12.37;43.19;98342.62;4418795;32;20077;-70
2021/12/10 05:43:57;;;;;;;10.20;1.00;;;;;;;12.03;43.74;98340.97;4418517;32;20077;-70
2021/12/10 05:46:23;;;;;;;9.80;1.27;;;;;;;12.01;43.89;98343.50;4417945;32;20086;-70
2021/12/10 05:48:49;;;;;;;6.97;1.55;;;;;;;11.90;44.34;98352.69;4417585;32;20116;-70
2021/12/10 05:51:15;;;;;;;10.63;1.02;;;;;;;12.10;44.09;98363.03;4415510;32;20121;-70
2021/12/10 05:53:41;;;;;;;5.32;0.95;;;;;;;12.13;43.65;98362.00;4418013;32;20060;-70
2021/12/10 05:56:08;;;;;;;11.48;1.10;;;;;;;12.67;42.89;98357.06;4416328;32;20376;-70
2021/12/10 05:58:34;;;;;;;9.77;1.10;;;;;;;12.01;43.91;98360.41;4416278;32;20060;-70
2021/12/10 06:01:05;;;;;;;11.73;1.17;;;;;;;11.83;44.07;98366.47;4416840;32;20488;-70
2021/12/10 06:03:34;;;;;;;7.07;1.17;;;;;;;12.63;42.86;98370.63;4417476;32;20484;-70
2021/12/10 06:06:02;;;;;;;9.75;1.45;;;;;;;12.44;43.27;98375.97;4419331;32;21714;-70
2021/12/10 06:08:28;;;;;;;7.57;1.10;;;;;;;12.40;43.52;98372.63;4418168;32;20073;-70
2021/12/10 06:10:55;;;;;;;11.35;0.90;;;;;;;12.09;44.10;98373.50;4416696;32;20068;-70
2021/12/10 06:13:23;;;;;;;7.72;1.30;;;;;;;12.43;43.65;98365.97;4417313;32;20033;-70
2021/12/10 06:15:49;;;;;;;12.05;1.77;;;;;;;12.52;43.86;98370.59;4419138;32;20106;-70
2021/12/10 06:18:15;;;;;;;9.25;1.12;;;;;;;12.43;44.07;98382.91;4420455;32;20056;-70
2021/12/10 06:20:46;;;;;;;14.00;1.48;;;;;;;11.81;45.67;98380.28;4415542;32;20464;-70
2021/12/10 06:23:12;;;;;;;9.63;1.20;;;;;;;12.53;44.37;98401.13;4416845;32;20085;-70
2021/12/10 06:25:38;;;;;;;8.57;1.27;;;;;;;11.99;45.26;98402.41;4421796;32;20348;-70
2021/12/10 06:28:05;;;;;;;11.68;1.17;;;;;;;11.92;45.20;98419.81;4416818;32;20301;-71
2021/12/10 06:30:37;;;;;;;6.82;1.02;;;;;;;12.18;44.63;98423.28;4418080;32;20033;-71
2021/12/10 06:33:05;;;;;;;11.30;1.10;;;;;;;12.73;43.75;98425.56;4422640;32;20030;-70
2021/12/10 06:35:32;;;;;;;10.52;1.25;;;;;;;12.53;43.74;98434.97;4420354;32;20038;-71
2021/12/10 06:37:59;;;;;;;13.65;1.23;;;;;;;12.01;44.56;98436.50;4420700;32;20056;-71
2021/12/10 06:40:30;;;;;;;20.33;1.40;;;;;;;12.65;43.49;98447.84;4418256;32;20060;-70
2021/12/10 06:42:56;;;;;;;16.45;1.37;;;;;;;12.34;43.64;98450.03;4420458;32;20116;-71
2021/12/10 06:45:26;;;;;;;8.88;0.90;;;;;;;12.04;44.23;98450.38;4421105;32;20164;-71
2021/12/10 06:47:58;;;;;;;12.98;1.55;;;;;;;12.23;44.01;98456.38;4420721;32;20050;-70
2021/12/10 06:50:26;;;;;;;11.35;0.95;;;;;;;12.46;43.32;98463.69;4420139;32;20078;-71
2021/12/10 06:52:53;;;;;;;8.40;1.45;;;;;;;12.01;44.44;98482.41;4421559;32;20065;-71
2021/12/10 06:55:19;;;;;;;9.88;1.70;;;;;;;12.38;43.94;98478.75;4419745;32;20427;-71
2021/12/10 06:57:46;;;;;;;7.62;1.17;;;;;;;11.76;45.45;98488.09;4421093;32;20029;-71
2021/12/10 07:00:16;;;;;;;10.68;1.27;;;;;;;12.26;44.64;98480.75;4418057;32;20034;-71
2021/12/10 07:02:44;;;;;;;11.80;1.10;;;;;;;11.94;45.60;98499.00;4422582;32;20081;-71
2021/12/10 07:05:10;;;;;;;8.45;1.20;;;;;;;11.94;45.36;98504.63;4423927;32;20501;-71
2021/12/10 07:07:38;;;;;;;6.43;1.48;;;;;;;11.75;46.22;98506.25;4422015;32;20069;-71
2021/12/10 07:10:06;;;;;;;5.82;1.35;;;;;;;12.25;45.25;98500.97;4417525;32;20038;-71
2021/12/10 07:12:34;;;;;;;13.40;1.98;;;;;;;12.37;45.04;98511.06;4418822;32;20021;-71
2021/12/10 07:15:02;;;;;;;10.25;1.27;;;;;;;12.25;45.10;98529.19;4418881;32;20096;-71
2021/12/10 07:17:28;;;;;;;8.63;1.23;;;;;;;11.81;45.78;98535.25;4419769;32;20050;-71
2021/12/10 07:19:55;;;;;;;11.57;1.52;;;;;;;12.13;45.19;98548.81;4422083;32;20487;-71
2021/12/10 07:22:20;;;;;;;8.95;1.40;;;;;;;11.92;45.74;98564.31;4418147;32;20166;-71
2021/12/10 07:24:46;;;;;;;13.05;0.82;;;;;;;11.88;45.86;98543.28;4420175;32;20081;-71
2021/12/10 07:27:12;;;;;;;12.05;1.55;;;;;;;11.90;45.80;98551.97;4423865;32;20068;-71
2021/12/10 07:29:39;;;;;;;10.65;2.83;;;;;;;12.13;45.28;98565.00;4417614;32;20108;-71
2021/12/10 07:32:06;;;;;;;17.27;1.60;;;;;;;11.45;47.05;98566.91;4419281;32;20111;-71
2021/12/10 07:34:31;;;;;;;13.27;1.40;;;;;;;11.23;47.60;98569.50;4414616;32;20073;-71
2021/12/10 07:36:57;;;;;;;16.98;1.30;;;;;;;11.96;45.85;98575.34;4418302;32;20225;-71
2021/12/10 07:39:23;;;;;;;12.02;1.20;;;;;;;12.01;45.46;98583.87;4418794;32;20079;-71
2021/12/10 07:41:50;;;;;;;12.80;1.52;;;;;;;11.90;45.45;98597.06;4415754;32;20331;-71
2021/12/10 07:44:15;;;;;;;12.50;2.03;;;;;;;12.14;44.98;98597.53;4415932;32;20046;-71
2021/12/10 07:46:42;;;;;;;10.80;1.12;;;;;;;12.47;44.29;98597.78;4410300;32;20053;-70
2021/12/10 07:49:14;;;;;;;10.93;1.20;;;;;;;12.30;44.73;98605.34;4413158;32;20197;-71
2021/12/10 07:51:44;;;;;;;12.95;1.62;;;;;;;12.48;44.20;98613.44;4414324;32;20136;-72
2021/12/10 07:54:11;;;;;;;10.27;2.00;;;;;;;12.25;45.06;98606.09;4416800;32;20198;-71
2021/12/10 07:56:38;;;;;;;9.55;0.93;;;;;;;12.63;44.34;98618.91;4413292;32;20046;-71
2021/12/10 07:59:05;;;;;;;11.80;1.37;;;;;;;12.70;44.35;98616.38;4410923;32;20440;-71
2021/12/10 08:01:32;;;;;;;8.35;1.10;;;;;;;12.72;44.69;98635.63;4406836;32;20064;-71
2021/12/10 08:04:01;;;;;;;15.50;1.52;;;;;;;12.68;44.89;98643.56;4403617;32;20093;-71
2021/12/10 08:06:29;;;;;;;12.48;1.87;;;;;;;12.84;44.82;98635.22;4412015;32;20167;-71
2021/12/10 08:08:55;;;;;;;15.20;1.62;;;;;;;12.75;45.06;98637.44;4405651;32;20021;-71
2021/12/10 08:11:23;;;;;;;7.35;1.12;;;;;;;12.44;45.40;98629.03;4411838;32;20652;-71
2021/12/10 08:13:50;;;;;;;8.32;1.17;;;;;;;12.53;45.50;98638.09;4409035;32;20073;-71
2021/12/10 08:16:16;;;;;;;11.90;1.48;;;;;;;12.40;45.21;98660.31;4411052;32;20156;-71
2021/12/10 08:18:43;;;;;;;7.87;1.17;;;;;;;12.55;44.62;98660.16;4388595;32;20099;-71
2021/12/10 08:21:09;;;;;;;7.78;1.15;;;;;;;12.05;45.42;98668.19;4406688;32;20077;-71
2021/12/10 08:23:37;;;;;;;7.78;1.60;;;;;;;12.09;45.07;98661.06;4396961;32;20088;-71
2021/12/10 08:26:05;;;;;;;11.40;1.33;;;;;;;12.70;44.10;98684.13;4413795;32;20037;-71
2021/12/10 08:28:33;;;;;;;12.32;1.90;;;;;;;12.56;44.00;98679.41;4413451;32;20042;-71
2021/12/10 08:31:00;;;;;;;5.07;1.50;;;;;;;12.46;44.12;98688.56;4414231;32;20080;-71
2021/12/10 08:33:26;;;;;;;6.28;1.12;;;;;;;12.55;43.81;98683.47;4405737;32;20699;-71
2021/12/10 08:35:58;;;;;;;7.47;1.00;;;;;;;12.27;44.32;98690.94;4411615;32;20138;-71
2021/12/10 08:38:26;;;;;;;12.15;1.23;;;;;;;12.63;43.55;98704.34;4413270;32;20066;-71
2021/12/10 08:40:58;;;;;;;7.57;0.90;;;;;;;12.55;43.41;98703.22;4406598;32;20069;-71
2021/12/10 08:43:29;;;;;;;6.53;1.25;;;;;;;13.00;42.43;98712.81;4409472;32;20177;-71
2021/12/10 08:45:55;;;;;;;9.57;1.12;;;;;;;12.76;42.80;98712.41;4410869;32;20038;-71
2021/12/10 08:48:24;;;;;;;7.57;1.62;;;;;;;12.66;42.77;98708.19;4409215;32;20177;-71
2021/12/10 08:50:51;;;;;;;9.40;1.05;;;;;;;12.81;42.63;98720.91;4411994;32;20092;-71
2021/12/10 08:53:17;;;;;;;13.70;1.33;;;;;;;12.57;43.43;98731.72;4397135;32;20069;-71
2021/12/10 08:55:47;;;;;;;15.27;1.98;;;;;;;12.95;42.66;98731.25;4414317;32;20093;-70
2021/12/10 08:58:13;;;;;;;8.70;1.10;;;;;;;13.17;42.55;98736.31;4409703;32;20077;-71
2021/12/10 09:00:42;;;;;;;7.20;1.23;;;;;;;12.93;43.12;98725.34;4409019;32;20061;-70
2021/12/10 09:03:09;;;;;;;6.53;1.12;;;;;;;13.10;43.08;98723.41;4413349;32;20407;-70
2021/12/10 09:05:38;;;;;;;8.05;1.17;;;;;;;12.87;43.68;98735.03;4400091;32;20104;-70
2021/12/10 09:08:04;;;;;;;6.40;1.02;;;;;;;12.52;44.42;98742.97;4410252;32;20057;-71
2021/12/10 09:10:37;;;;;;;8.57;1.20;;;;;;;12.67;44.67;98744.37;4412166;32;20097;-70
2021/12/10 09:13:12;;;;;;;10.25;1.95;;;;;;;13.01;43.67;98753.91;4412759;32;20876;-71
2021/12/10 09:15:41;;;;;;;7.97;1.67;;;;;;;12.59;44.85;98759.44;4411968;32;20104;-71
2021/12/10 09:18:08;;;;;;;15.07;1.52;;;;;;;12.34;45.66;98769.47;4414158;32;20145;-70
2021/12/10 09:20:39;;;;;;;17.80;1.60;;;;;;;12.54;45.34;98779.91;4412653;32;20103;-70
2021/12/10 09:23:08;;;;;;;9.02;1.62;;;;;;;12.88;44.67;98781.75;4414301;32;20063;-71
2021/12/10 09:25:36;;;;;;;7.32;1.15;;;;;;;12.78;45.03;98783.19;4411987;32;20072;-70
2021/12/10 09:28:04;;;;;;;17.58;1.27;;;;;;;12.89;44.64;98795.34;4413778;32;20064;-70
2021/12/10 09:30:33;;;;;;;6.15;1.12;;;;;;;12.97;44.60;98807.75;4407564;32;20460;-69
2021/12/10 09:32:59;;;;;;;11.07;1.58;;;;;;;12.90;44.83;98811.03;4409580;32;20752;-69
2021/12/10 09:35:29;;;;;;;10.25;1.40;;;;;;;13.43;43.82;98805.53;4413636;32;20037;-70
2021/12/10 09:37:56;;;;;;;3.80;1.10;;;;;;;13.72;43.41;98805.19;4400276;32;20064;-70
2021/12/10 09:40:31;;;;;;;12.60;1.55;;;;;;;14.13;42.93;98821.81;4411326;32;20130;-70
2021/12/10 09:42:59;;;;;;;7.65;1.00;;;;;;;14.53;41.50;98821.44;4410504;32;20489;-71
2021/12/10 09:45:28;;;;;;;6.35;1.55;;;;;;;14.39;41.48;98826.03;4415220;32;20085;-70
2021/12/10 09:47:55;;;;;;;8.93;1.20;;;;;;;14.93;40.86;98835.13;4399046;32;20093;-70
2021/12/10 09:50:26;;;;;;;6.20;1.00;;;;;;;15.12;40.24;98839.00;4409741;32;20476;-70
2021/12/10 09:52:54;;;;;;;9.55;1.20;;;;;;;15.37;39.73;98843.69;4413878;32;21475;-70
2021/12/10 09:55:21;;;;;;;6.85;1.08;;;;;;;14.79;40.15;98833.34;4414874;32;20156;-70
2021/12/10 09:57:51;;;;;;;11.93;1.20;;;;;;;14.00;42.05;98848.50;4413662;32;20465;-70
2021/12/10 10:00:32;;;;;;;11.50;1.00;;;;;;;15.14;40.15;98842.87;4410441;32;20100;-69
2021/12/10 10:03:04;;;;;;;14.40;1.23;;;;;;;15.15;39.70;98860.63;4395623;32;20437;-69
2021/12/10 10:05:32;;;;;;;12.07;1.30;;;;;;;15.23;39.58;98867.34;4412151;32;20103;-70
2021/12/10 10:08:04;;;;;;;12.50;1.80;;;;;;;14.97;39.96;98870.41;4414427;32;20221;-69
2021/12/10 10:10:32;;;;;;;7.90;0.90;;;;;;;14.72;40.68;98881.94;4412371;32;20081;-68
2021/12/10 10:13:01;;;;;;;8.00;1.25;;;;;;;14.76;40.82;98880.41;4366407;32;20973;-69
2021/12/10 10:15:32;;;;;;;8.95;1.27;;;;;;;15.11;40.09;98891.28;4413203;32;20106;-69
2021/12/10 10:18:08;;;;;;;6.75;1.15;;;;;;;14.89;40.19;98894.09;4414612;32;20078;-70
2021/12/10 10:20:37;;;;;;;7.05;0.98;;;;;;;15.38;39.86;98899.84;4414386;32;20104;-71
2021/12/10 10:23:05;;;;;;;11.48;1.15;;;;;;;14.98;40.25;98919.34;4418772;32;20088;-70
2021/12/10 10:25:32;;;;;;;9.60;0.82;;;;;;;14.86;40.37;98912.88;4415395;32;20071;-71
2021/12/10 10:27:58;;;;;;;9.80;1.60;;;;;;;15.18;39.96;98919.09;4416150;32;20141;-71
2021/12/10 10:30:37;;;;;;;7.93;1.08;;;;;;;15.56;39.59;98918.37;4413712;32;20093;-71
2021/12/10 10:33:08;;;;;;;9.05;1.10;;;;;;;15.69;39.25;98927.91;4418609;32;20056;-71
2021/12/10 10:35:42;;;;;;;6.57;0.90;;;;;;;15.90;38.76;98932.00;4415258;32;20077;-71
2021/12/10 10:38:10;;;;;;;13.23;1.52;;;;;;;15.98;38.86;98940.00;4415498;32;20166;-71
2021/12/10 10:40:41;;;;;;;8.68;1.95;;;;;;;15.70;38.79;98923.00;4414537;32;20096;-71
2021/12/10 10:43:08;;;;;;;10.88;1.40;;;;;;;14.98;40.22;98930.69;4417248;32;20120;-71
2021/12/10 10:45:36;;;;;;;6.53;0.88;;;;;;;15.19;39.97;98937.66;4402579;32;20068;-70
2021/12/10 10:48:04;;;;;;;5.50;0.55;;;;;;;14.90;40.21;98938.12;4415116;32;20150;-70
2021/12/10 10:50:36;;;;;;;4.35;1.08;;;;;;;14.31;41.49;98946.66;4416362;32;20066;-70
2021/12/10 10:53:08;;;;;;;2.25;0.40;;;;;;;14.66;40.56;98943.47;4414728;32;20066;-70
2021/12/10 10:55:39;;;;;;;6.47;0.80;;;;;;;14.57;40.62;98935.94;4410726;32;20069;-70
2021/12/10 10:58:10;;;;;;;3.15;0.55;;;;;;;14.36;40.85;98954.38;4415343;32;21637;-70
2021/12/10 11:00:49;;;;;;;4.93;1.02;;;;;;;14.07;41.80;98941.37;4413490;32;20116;-70
2021/12/10 11:03:22;;;;;;;9.15;0.80;;;;;;;14.52;40.59;98945.22;4400185;32;20078;-70
2021/12/10 11:05:57;;;;;;;5.32;0.68;;;;;;;14.25;40.83;98950.72;4415493;32;20077;-70
2021/12/10 11:08:36;;;;;;;7.55;0.75;;;;;;;13.62;42.05;98967.78;4402123;32;20046;-70
2021/12/10 11:13:49;;;;;;;6.72;0.80;;;;;;;14.37;41.05;98963.66;3987744;31;15143704;-71
2021/12/10 11:16:20;;;;;;;7.10;0.90;;;;;;;13.77;42.27;98965.56;4448693;32;20085;-71
2021/12/10 11:18:56;;;;;;;8.52;0.98;;;;;;;14.33;41.16;98960.28;4424514;32;20088;-71
2021/12/10 11:21:44;;;;;;;3.90;0.70;;;;;;;14.59;40.85;98970.19;4446721;32;20085;-70
2021/12/10 11:29:28;;;;;;;7.22;1.02;;;;;;;15.96;38.32;98969.63;3976227;32;15024381;-72
2021/12/10 11:32:08;;;;;;;6.22;1.52;;;;;;;15.38;39.05;98992.59;4428320;32;20060;-71
2021/12/10 11:35:11;;;;;;;8.50;0.90;;;;;;;15.80;38.55;98975.31;4426867;32;20188;-71
2021/12/10 11:43:19;;;;;;;6.47;1.80;;;;;;;17.93;35.07;98996.88;3977981;32;15023933;-70
2021/12/10 11:46:04;;;;;;;6.40;1.20;;;;;;;17.93;35.07;98996.88;4433240;32;20080;-74
2021/12/10 11:48:32;;;;;;;7.32;1.10;;;;;;;18.02;34.66;99007.12;4430678;32;20065;-72
2021/12/10 11:53:56;;;;;;;11.23;1.40;;;;;;;17.98;34.91;99023.72;3951474;32;15723484;-73
2021/12/10 12:04:37;;;;;;;4.07;0.95;;;;;;;17.35;35.46;99041.75;3982228;31;15017431;-72
2021/12/10 12:07:43;;;;;;;5.07;0.93;;;;;;;17.35;35.46;99041.75;4443799;32;20132;-72
2021/12/10 12:26:24;;;;;;;8.73;0.90;;;;;;;19.14;32.24;99071.72;4420532;32;20073;-72
2021/12/10 12:29:02;;;;;;;6.12;1.00;;;;;;;18.96;32.22;99075.34;4426950;32;20101;-72